sensor_id;sensor_type;location;lat;lon;timestamp;P1;durP1;ratioP1;P2;durP2;ratioP2
79702;SDS011;69172;52.352;5.006;2023-07-08T00:00:54;12.68;;;5.97;;
79702;SDS011;69172;52.352;5.006;2023-07-08T00:03:19;10.20;;;4.40;;
79702;SDS011;69172;52.352;5.006;2023-07-08T00:05:46;11.25;;;5.15;;
79702;SDS011;69172;52.352;5.006;2023-07-08T00:08:21;9.20;;;3.42;;
79702;SDS011;69172;52.352;5.006;2023-07-08T00:10:46;8.70;;;4.07;;
79702;SDS011;69172;52.352;5.006;2023-07-08T00:13:12;9.20;;;3.53;;
79702;SDS011;69172;52.352;5.006;2023-07-08T00:15:38;11.57;;;3.90;;
79702;SDS011;69172;52.352;5.006;2023-07-08T00:18:12;9.20;;;4.05;;
79702;SDS011;69172;52.352;5.006;2023-07-08T00:20:45;7.90;;;3.55;;
79702;SDS011;69172;52.352;5.006;2023-07-08T00:23:13;10.18;;;3.67;;
79702;SDS011;69172;52.352;5.006;2023-07-08T00:25:41;9.90;;;3.13;;
79702;SDS011;69172;52.352;5.006;2023-07-08T00:28:10;8.57;;;3.90;;
79702;SDS011;69172;52.352;5.006;2023-07-08T00:30:39;8.27;;;3.65;;
79702;SDS011;69172;52.352;5.006;2023-07-08T00:33:05;9.73;;;3.70;;
79702;SDS011;69172;52.352;5.006;2023-07-08T00:35:41;6.90;;;3.47;;
79702;SDS011;69172;52.352;5.006;2023-07-08T00:38:19;9.57;;;4.07;;
79702;SDS011;69172;52.352;5.006;2023-07-08T00:40:58;10.98;;;5.55;;
79702;SDS011;69172;52.352;5.006;2023-07-08T00:43:27;10.63;;;4.90;;
79702;SDS011;69172;52.352;5.006;2023-07-08T00:49:23;9.15;;;3.75;;
79702;SDS011;69172;52.352;5.006;2023-07-08T00:52:14;8.77;;;3.15;;
79702;SDS011;69172;52.352;5.006;2023-07-08T00:54:42;8.63;;;4.13;;
79702;SDS011;69172;52.352;5.006;2023-07-08T00:57:08;8.57;;;3.95;;
79702;SDS011;69172;52.352;5.006;2023-07-08T00:59:39;7.93;;;3.60;;
79702;SDS011;69172;52.352;5.006;2023-07-08T01:02:29;16.38;;;3.80;;
79702;SDS011;69172;52.352;5.006;2023-07-08T01:05:06;9.88;;;3.60;;
79702;SDS011;69172;52.352;5.006;2023-07-08T01:07:42;9.07;;;3.90;;
79702;SDS011;69172;52.352;5.006;2023-07-08T01:10:12;8.20;;;3.80;;
79702;SDS011;69172;52.352;5.006;2023-07-08T01:12:43;10.13;;;3.85;;
79702;SDS011;69172;52.352;5.006;2023-07-08T01:17:39;11.00;;;4.15;;
79702;SDS011;69172;52.352;5.006;2023-07-08T01:20:07;8.15;;;3.50;;
79702;SDS011;69172;52.352;5.006;2023-07-08T01:22:37;10.57;;;3.83;;
79702;SDS011;69172;52.352;5.006;2023-07-08T01:25:05;10.07;;;3.80;;
79702;SDS011;69172;52.352;5.006;2023-07-08T01:27:33;8.43;;;3.80;;
79702;SDS011;69172;52.352;5.006;2023-07-08T01:30:00;9.05;;;3.42;;
79702;SDS011;69172;52.352;5.006;2023-07-08T01:32:29;10.32;;;3.80;;
79702;SDS011;69172;52.352;5.006;2023-07-08T01:34:59;8.70;;;4.07;;
79702;SDS011;69172;52.352;5.006;2023-07-08T01:37:42;10.63;;;4.22;;
79702;SDS011;69172;52.352;5.006;2023-07-08T01:40:28;11.63;;;4.03;;
79702;SDS011;69172;52.352;5.006;2023-07-08T01:42:56;15.73;;;3.92;;
79702;SDS011;69172;52.352;5.006;2023-07-08T01:45:22;9.05;;;3.80;;
79702;SDS011;69172;52.352;5.006;2023-07-08T01:47:52;10.23;;;4.00;;
79702;SDS011;69172;52.352;5.006;2023-07-08T01:50:24;9.65;;;4.00;;
79702;SDS011;69172;52.352;5.006;2023-07-08T01:52:51;8.95;;;4.05;;
79702;SDS011;69172;52.352;5.006;2023-07-08T01:55:24;9.50;;;3.90;;
79702;SDS011;69172;52.352;5.006;2023-07-08T01:57:53;10.98;;;3.70;;
79702;SDS011;69172;52.352;5.006;2023-07-08T02:00:20;8.77;;;4.13;;
79702;SDS011;69172;52.352;5.006;2023-07-08T02:02:46;7.72;;;3.58;;
79702;SDS011;69172;52.352;5.006;2023-07-08T02:05:12;8.25;;;3.47;;
79702;SDS011;69172;52.352;5.006;2023-07-08T02:07:38;7.82;;;3.60;;
79702;SDS011;69172;52.352;5.006;2023-07-08T02:10:03;9.30;;;4.25;;
79702;SDS011;69172;52.352;5.006;2023-07-08T02:12:29;9.68;;;3.55;;
79702;SDS011;69172;52.352;5.006;2023-07-08T02:14:55;12.73;;;3.70;;
79702;SDS011;69172;52.352;5.006;2023-07-08T02:17:20;11.80;;;3.90;;
79702;SDS011;69172;52.352;5.006;2023-07-08T02:19:45;10.25;;;3.67;;
79702;SDS011;69172;52.352;5.006;2023-07-08T02:22:11;8.23;;;3.38;;
79702;SDS011;69172;52.352;5.006;2023-07-08T02:24:36;11.73;;;3.63;;
79702;SDS011;69172;52.352;5.006;2023-07-08T02:27:02;8.23;;;3.70;;
79702;SDS011;69172;52.352;5.006;2023-07-08T02:29:27;9.65;;;3.83;;
79702;SDS011;69172;52.352;5.006;2023-07-08T02:31:53;9.10;;;3.50;;
79702;SDS011;69172;52.352;5.006;2023-07-08T02:34:18;9.82;;;3.80;;
79702;SDS011;69172;52.352;5.006;2023-07-08T02:36:43;7.78;;;3.53;;
79702;SDS011;69172;52.352;5.006;2023-07-08T02:39:09;7.30;;;3.10;;
79702;SDS011;69172;52.352;5.006;2023-07-08T02:41:36;7.15;;;3.22;;
79702;SDS011;69172;52.352;5.006;2023-07-08T02:44:02;8.48;;;3.55;;
79702;SDS011;69172;52.352;5.006;2023-07-08T02:46:27;8.00;;;3.50;;
79702;SDS011;69172;52.352;5.006;2023-07-08T02:48:52;8.90;;;3.13;;
79702;SDS011;69172;52.352;5.006;2023-07-08T02:51:18;9.45;;;3.55;;
79702;SDS011;69172;52.352;5.006;2023-07-08T02:53:43;8.23;;;3.22;;
79702;SDS011;69172;52.352;5.006;2023-07-08T02:56:09;6.63;;;3.20;;
79702;SDS011;69172;52.352;5.006;2023-07-08T02:58:36;9.60;;;4.13;;
79702;SDS011;69172;52.352;5.006;2023-07-08T03:01:01;8.00;;;3.33;;
79702;SDS011;69172;52.352;5.006;2023-07-08T03:03:28;8.50;;;3.10;;
79702;SDS011;69172;52.352;5.006;2023-07-08T03:05:55;9.30;;;3.53;;
79702;SDS011;69172;52.352;5.006;2023-07-08T03:08:24;9.48;;;3.75;;
79702;SDS011;69172;52.352;5.006;2023-07-08T03:10:54;11.02;;;3.85;;
79702;SDS011;69172;52.352;5.006;2023-07-08T03:13:22;9.45;;;3.53;;
79702;SDS011;69172;52.352;5.006;2023-07-08T03:15:48;9.05;;;3.85;;
79702;SDS011;69172;52.352;5.006;2023-07-08T03:18:14;8.60;;;3.90;;
79702;SDS011;69172;52.352;5.006;2023-07-08T03:20:40;8.13;;;3.65;;
79702;SDS011;69172;52.352;5.006;2023-07-08T03:23:05;8.82;;;3.40;;
79702;SDS011;69172;52.352;5.006;2023-07-08T03:25:31;9.70;;;3.90;;
79702;SDS011;69172;52.352;5.006;2023-07-08T03:27:56;9.25;;;4.10;;
79702;SDS011;69172;52.352;5.006;2023-07-08T03:30:22;10.60;;;4.28;;
79702;SDS011;69172;52.352;5.006;2023-07-08T03:32:48;7.97;;;3.95;;
79702;SDS011;69172;52.352;5.006;2023-07-08T03:35:13;8.50;;;3.45;;
79702;SDS011;69172;52.352;5.006;2023-07-08T03:37:39;9.32;;;4.05;;
79702;SDS011;69172;52.352;5.006;2023-07-08T03:40:05;9.23;;;4.15;;
79702;SDS011;69172;52.352;5.006;2023-07-08T03:42:34;8.77;;;3.72;;
79702;SDS011;69172;52.352;5.006;2023-07-08T03:45:00;8.88;;;3.83;;
79702;SDS011;69172;52.352;5.006;2023-07-08T03:47:25;8.93;;;3.83;;
79702;SDS011;69172;52.352;5.006;2023-07-08T03:49:51;8.57;;;4.00;;
79702;SDS011;69172;52.352;5.006;2023-07-08T03:52:16;8.25;;;3.83;;
79702;SDS011;69172;52.352;5.006;2023-07-08T03:54:42;9.15;;;3.97;;
79702;SDS011;69172;52.352;5.006;2023-07-08T03:57:07;10.57;;;3.60;;
79702;SDS011;69172;52.352;5.006;2023-07-08T03:59:33;8.82;;;3.50;;
79702;SDS011;69172;52.352;5.006;2023-07-08T04:01:58;6.70;;;3.35;;
79702;SDS011;69172;52.352;5.006;2023-07-08T04:04:23;8.77;;;3.80;;
79702;SDS011;69172;52.352;5.006;2023-07-08T04:06:49;10.60;;;3.88;;
79702;SDS011;69172;52.352;5.006;2023-07-08T04:09:15;8.85;;;3.70;;
79702;SDS011;69172;52.352;5.006;2023-07-08T04:11:41;9.45;;;3.80;;
79702;SDS011;69172;52.352;5.006;2023-07-08T04:14:07;9.10;;;3.38;;
79702;SDS011;69172;52.352;5.006;2023-07-08T04:16:41;10.45;;;3.75;;
79702;SDS011;69172;52.352;5.006;2023-07-08T04:19:14;9.68;;;3.80;;
79702;SDS011;69172;52.352;5.006;2023-07-08T04:21:41;9.98;;;3.85;;
79702;SDS011;69172;52.352;5.006;2023-07-08T04:24:08;15.30;;;4.38;;
79702;SDS011;69172;52.352;5.006;2023-07-08T04:26:39;8.38;;;3.60;;
79702;SDS011;69172;52.352;5.006;2023-07-08T04:29:12;11.70;;;4.28;;
79702;SDS011;69172;52.352;5.006;2023-07-08T04:31:38;10.05;;;3.70;;
79702;SDS011;69172;52.352;5.006;2023-07-08T04:34:04;9.48;;;3.70;;
79702;SDS011;69172;52.352;5.006;2023-07-08T04:36:31;7.55;;;3.42;;
79702;SDS011;69172;52.352;5.006;2023-07-08T04:38:57;8.27;;;4.10;;
79702;SDS011;69172;52.352;5.006;2023-07-08T04:41:23;8.20;;;3.60;;
79702;SDS011;69172;52.352;5.006;2023-07-08T04:43:51;8.43;;;3.70;;
79702;SDS011;69172;52.352;5.006;2023-07-08T04:46:19;9.70;;;4.22;;
79702;SDS011;69172;52.352;5.006;2023-07-08T04:49:00;8.32;;;3.83;;
79702;SDS011;69172;52.352;5.006;2023-07-08T04:51:29;8.73;;;3.35;;
79702;SDS011;69172;52.352;5.006;2023-07-08T04:53:54;10.20;;;4.20;;
79702;SDS011;69172;52.352;5.006;2023-07-08T04:56:20;8.40;;;3.83;;
79702;SDS011;69172;52.352;5.006;2023-07-08T04:58:45;9.30;;;3.60;;
79702;SDS011;69172;52.352;5.006;2023-07-08T05:01:11;10.00;;;4.00;;
79702;SDS011;69172;52.352;5.006;2023-07-08T05:03:36;9.05;;;3.80;;
79702;SDS011;69172;52.352;5.006;2023-07-08T05:06:01;7.35;;;3.42;;
79702;SDS011;69172;52.352;5.006;2023-07-08T05:08:27;9.13;;;4.10;;
79702;SDS011;69172;52.352;5.006;2023-07-08T05:10:52;6.65;;;3.17;;
79702;SDS011;69172;52.352;5.006;2023-07-08T05:13:18;7.35;;;3.67;;
79702;SDS011;69172;52.352;5.006;2023-07-08T05:15:43;18.60;;;4.55;;
79702;SDS011;69172;52.352;5.006;2023-07-08T05:18:08;9.00;;;3.92;;
79702;SDS011;69172;52.352;5.006;2023-07-08T05:20:34;11.05;;;4.13;;
79702;SDS011;69172;52.352;5.006;2023-07-08T05:23:01;8.82;;;3.75;;
79702;SDS011;69172;52.352;5.006;2023-07-08T05:25:27;11.20;;;3.85;;
79702;SDS011;69172;52.352;5.006;2023-07-08T05:27:56;9.25;;;3.65;;
79702;SDS011;69172;52.352;5.006;2023-07-08T05:30:22;8.00;;;3.75;;
79702;SDS011;69172;52.352;5.006;2023-07-08T05:32:47;9.77;;;3.95;;
79702;SDS011;69172;52.352;5.006;2023-07-08T05:35:13;9.30;;;3.75;;
79702;SDS011;69172;52.352;5.006;2023-07-08T05:37:39;8.13;;;3.35;;
79702;SDS011;69172;52.352;5.006;2023-07-08T05:40:06;8.80;;;3.70;;
79702;SDS011;69172;52.352;5.006;2023-07-08T05:42:33;9.73;;;4.00;;
79702;SDS011;69172;52.352;5.006;2023-07-08T05:44:58;10.18;;;3.60;;
79702;SDS011;69172;52.352;5.006;2023-07-08T05:47:23;9.13;;;4.10;;
79702;SDS011;69172;52.352;5.006;2023-07-08T05:49:49;8.50;;;3.85;;
79702;SDS011;69172;52.352;5.006;2023-07-08T05:52:14;11.93;;;4.60;;
79702;SDS011;69172;52.352;5.006;2023-07-08T05:54:40;8.65;;;5.07;;
79702;SDS011;69172;52.352;5.006;2023-07-08T05:57:07;8.77;;;4.15;;
79702;SDS011;69172;52.352;5.006;2023-07-08T05:59:34;9.23;;;3.92;;
79702;SDS011;69172;52.352;5.006;2023-07-08T06:02:01;8.88;;;3.70;;
79702;SDS011;69172;52.352;5.006;2023-07-08T06:04:28;10.25;;;4.15;;
79702;SDS011;69172;52.352;5.006;2023-07-08T06:06:53;9.00;;;3.95;;
79702;SDS011;69172;52.352;5.006;2023-07-08T06:09:19;7.72;;;3.83;;
79702;SDS011;69172;52.352;5.006;2023-07-08T06:11:45;7.88;;;3.55;;
79702;SDS011;69172;52.352;5.006;2023-07-08T06:14:10;8.95;;;4.10;;
79702;SDS011;69172;52.352;5.006;2023-07-08T06:16:36;12.73;;;3.70;;
79702;SDS011;69172;52.352;5.006;2023-07-08T06:19:01;9.70;;;3.88;;
79702;SDS011;69172;52.352;5.006;2023-07-08T06:21:27;8.20;;;4.03;;
79702;SDS011;69172;52.352;5.006;2023-07-08T06:23:52;8.85;;;3.53;;
79702;SDS011;69172;52.352;5.006;2023-07-08T06:26:18;8.25;;;3.70;;
79702;SDS011;69172;52.352;5.006;2023-07-08T06:28:43;8.95;;;3.42;;
79702;SDS011;69172;52.352;5.006;2023-07-08T06:31:10;9.73;;;4.00;;
79702;SDS011;69172;52.352;5.006;2023-07-08T06:33:35;8.77;;;3.85;;
79702;SDS011;69172;52.352;5.006;2023-07-08T06:36:01;7.57;;;3.58;;
79702;SDS011;69172;52.352;5.006;2023-07-08T06:38:28;9.00;;;4.03;;
79702;SDS011;69172;52.352;5.006;2023-07-08T06:40:53;7.43;;;3.38;;
79702;SDS011;69172;52.352;5.006;2023-07-08T06:43:18;7.32;;;3.75;;
79702;SDS011;69172;52.352;5.006;2023-07-08T06:45:44;8.88;;;4.18;;
79702;SDS011;69172;52.352;5.006;2023-07-08T06:48:09;9.63;;;4.05;;
79702;SDS011;69172;52.352;5.006;2023-07-08T06:50:35;7.47;;;3.60;;
79702;SDS011;69172;52.352;5.006;2023-07-08T06:53:00;9.55;;;3.75;;
79702;SDS011;69172;52.352;5.006;2023-07-08T06:55:27;8.07;;;3.40;;
79702;SDS011;69172;52.352;5.006;2023-07-08T06:57:54;8.57;;;3.92;;
79702;SDS011;69172;52.352;5.006;2023-07-08T07:00:19;8.70;;;3.70;;
79702;SDS011;69172;52.352;5.006;2023-07-08T07:02:45;9.20;;;3.78;;
79702;SDS011;69172;52.352;5.006;2023-07-08T07:05:10;8.35;;;3.67;;
79702;SDS011;69172;52.352;5.006;2023-07-08T07:07:35;8.75;;;3.72;;
79702;SDS011;69172;52.352;5.006;2023-07-08T07:10:01;9.18;;;4.07;;
79702;SDS011;69172;52.352;5.006;2023-07-08T07:12:28;8.30;;;3.65;;
79702;SDS011;69172;52.352;5.006;2023-07-08T07:14:53;9.73;;;4.15;;
79702;SDS011;69172;52.352;5.006;2023-07-08T07:17:20;8.55;;;3.75;;
79702;SDS011;69172;52.352;5.006;2023-07-08T07:19:46;10.60;;;3.83;;
79702;SDS011;69172;52.352;5.006;2023-07-08T07:22:11;9.65;;;3.97;;
79702;SDS011;69172;52.352;5.006;2023-07-08T07:24:37;8.48;;;3.60;;
79702;SDS011;69172;52.352;5.006;2023-07-08T07:27:02;10.93;;;4.00;;
79702;SDS011;69172;52.352;5.006;2023-07-08T07:29:28;10.13;;;4.20;;
79702;SDS011;69172;52.352;5.006;2023-07-08T07:31:53;9.15;;;4.40;;
79702;SDS011;69172;52.352;5.006;2023-07-08T07:34:20;11.00;;;3.90;;
79702;SDS011;69172;52.352;5.006;2023-07-08T07:36:46;10.70;;;3.67;;
79702;SDS011;69172;52.352;5.006;2023-07-08T07:39:11;14.43;;;3.53;;
79702;SDS011;69172;52.352;5.006;2023-07-08T07:41:37;8.15;;;3.67;;
79702;SDS011;69172;52.352;5.006;2023-07-08T07:44:03;12.55;;;4.13;;
79702;SDS011;69172;52.352;5.006;2023-07-08T07:46:28;7.20;;;3.22;;
79702;SDS011;69172;52.352;5.006;2023-07-08T07:48:53;6.85;;;3.25;;
79702;SDS011;69172;52.352;5.006;2023-07-08T07:51:19;9.15;;;3.75;;
79702;SDS011;69172;52.352;5.006;2023-07-08T07:53:44;8.73;;;4.22;;
79702;SDS011;69172;52.352;5.006;2023-07-08T07:56:10;11.63;;;4.40;;
79702;SDS011;69172;52.352;5.006;2023-07-08T07:58:35;8.52;;;3.75;;
79702;SDS011;69172;52.352;5.006;2023-07-08T08:01:00;11.93;;;4.50;;
79702;SDS011;69172;52.352;5.006;2023-07-08T08:03:26;9.20;;;5.10;;
79702;SDS011;69172;52.352;5.006;2023-07-08T08:05:51;10.10;;;4.63;;
79702;SDS011;69172;52.352;5.006;2023-07-08T08:08:18;10.60;;;5.63;;
79702;SDS011;69172;52.352;5.006;2023-07-08T08:10:44;11.38;;;5.85;;
79702;SDS011;69172;52.352;5.006;2023-07-08T08:13:09;10.60;;;6.18;;
79702;SDS011;69172;52.352;5.006;2023-07-08T08:15:37;9.93;;;5.72;;
79702;SDS011;69172;52.352;5.006;2023-07-08T08:18:03;13.02;;;6.60;;
79702;SDS011;69172;52.352;5.006;2023-07-08T08:20:29;11.38;;;6.00;;
79702;SDS011;69172;52.352;5.006;2023-07-08T08:22:54;12.82;;;6.10;;
79702;SDS011;69172;52.352;5.006;2023-07-08T08:25:21;11.98;;;5.63;;
79702;SDS011;69172;52.352;5.006;2023-07-08T08:27:48;12.52;;;5.68;;
79702;SDS011;69172;52.352;5.006;2023-07-08T08:30:14;10.20;;;5.40;;
79702;SDS011;69172;52.352;5.006;2023-07-08T08:32:53;11.73;;;5.93;;
79702;SDS011;69172;52.352;5.006;2023-07-08T08:35:27;14.18;;;6.40;;
79702;SDS011;69172;52.352;5.006;2023-07-08T08:37:58;10.35;;;5.18;;
79702;SDS011;69172;52.352;5.006;2023-07-08T08:40:24;12.43;;;5.57;;
79702;SDS011;69172;52.352;5.006;2023-07-08T08:42:53;10.98;;;5.70;;
79702;SDS011;69172;52.352;5.006;2023-07-08T08:46:04;10.80;;;5.45;;
79702;SDS011;69172;52.352;5.006;2023-07-08T08:49:06;9.60;;;5.43;;
79702;SDS011;69172;52.352;5.006;2023-07-08T08:51:41;9.90;;;5.60;;
79702;SDS011;69172;52.352;5.006;2023-07-08T08:54:07;11.43;;;5.68;;
79702;SDS011;69172;52.352;5.006;2023-07-08T08:56:43;12.10;;;6.65;;
79702;SDS011;69172;52.352;5.006;2023-07-08T08:59:53;11.13;;;6.00;;
79702;SDS011;69172;52.352;5.006;2023-07-08T09:02:23;12.80;;;6.00;;
79702;SDS011;69172;52.352;5.006;2023-07-08T09:04:56;14.18;;;6.60;;
79702;SDS011;69172;52.352;5.006;2023-07-08T09:07:27;12.23;;;5.90;;
79702;SDS011;69172;52.352;5.006;2023-07-08T09:12:24;11.45;;;5.88;;
79702;SDS011;69172;52.352;5.006;2023-07-08T09:14:52;10.95;;;5.93;;
79702;SDS011;69172;52.352;5.006;2023-07-08T09:17:28;10.20;;;5.65;;
79702;SDS011;69172;52.352;5.006;2023-07-08T09:22:31;12.52;;;5.60;;
79702;SDS011;69172;52.352;5.006;2023-07-08T09:27:40;10.27;;;5.78;;
79702;SDS011;69172;52.352;5.006;2023-07-08T09:30:09;11.32;;;5.90;;
79702;SDS011;69172;52.352;5.006;2023-07-08T09:32:41;13.82;;;6.50;;
79702;SDS011;69172;52.352;5.006;2023-07-08T09:35:07;11.77;;;5.88;;
79702;SDS011;69172;52.352;5.006;2023-07-08T09:37:35;11.45;;;6.10;;
79702;SDS011;69172;52.352;5.006;2023-07-08T09:40:15;10.73;;;6.00;;
79702;SDS011;69172;52.352;5.006;2023-07-08T09:42:43;9.82;;;5.72;;
79702;SDS011;69172;52.352;5.006;2023-07-08T09:45:13;12.70;;;6.43;;
79702;SDS011;69172;52.352;5.006;2023-07-08T09:47:40;10.57;;;6.53;;
79702;SDS011;69172;52.352;5.006;2023-07-08T09:50:16;9.80;;;5.63;;
79702;SDS011;69172;52.352;5.006;2023-07-08T09:52:43;12.38;;;5.95;;
79702;SDS011;69172;52.352;5.006;2023-07-08T09:55:11;10.07;;;5.97;;
79702;SDS011;69172;52.352;5.006;2023-07-08T09:57:37;10.05;;;5.85;;
79702;SDS011;69172;52.352;5.006;2023-07-08T10:00:06;25.90;;;8.45;;
79702;SDS011;69172;52.352;5.006;2023-07-08T10:07:55;9.68;;;5.25;;
79702;SDS011;69172;52.352;5.006;2023-07-08T10:10:24;9.65;;;4.97;;
79702;SDS011;69172;52.352;5.006;2023-07-08T10:12:56;10.85;;;5.80;;
79702;SDS011;69172;52.352;5.006;2023-07-08T10:15:27;15.95;;;5.88;;
79702;SDS011;69172;52.352;5.006;2023-07-08T10:17:58;12.57;;;6.63;;
79702;SDS011;69172;52.352;5.006;2023-07-08T10:20:24;11.95;;;5.10;;
79702;SDS011;69172;52.352;5.006;2023-07-08T10:23:05;9.93;;;5.00;;
79702;SDS011;69172;52.352;5.006;2023-07-08T10:25:49;9.98;;;5.45;;
79702;SDS011;69172;52.352;5.006;2023-07-08T10:28:34;12.90;;;5.80;;
79702;SDS011;69172;52.352;5.006;2023-07-08T10:37:00;13.20;;;5.55;;
79702;SDS011;69172;52.352;5.006;2023-07-08T11:13:06;16.73;;;8.55;;
79702;SDS011;69172;52.352;5.006;2023-07-08T11:18:13;12.30;;;6.60;;
79702;SDS011;69172;52.352;5.006;2023-07-08T11:23:23;15.05;;;7.53;;
79702;SDS011;69172;52.352;5.006;2023-07-08T11:26:40;12.73;;;7.13;;
79702;SDS011;69172;52.352;5.006;2023-07-08T11:28:52;12.50;;;6.60;;
79702;SDS011;69172;52.352;5.006;2023-07-08T11:31:22;10.73;;;6.70;;
79702;SDS011;69172;52.352;5.006;2023-07-08T11:33:48;12.68;;;7.07;;
79702;SDS011;69172;52.352;5.006;2023-07-08T11:36:13;14.50;;;9.77;;
79702;SDS011;69172;52.352;5.006;2023-07-08T11:38:47;11.85;;;7.05;;
79702;SDS011;69172;52.352;5.006;2023-07-08T11:41:15;11.75;;;6.47;;
79702;SDS011;69172;52.352;5.006;2023-07-08T11:43:50;12.68;;;7.18;;
79702;SDS011;69172;52.352;5.006;2023-07-08T11:46:18;14.93;;;7.45;;
79702;SDS011;69172;52.352;5.006;2023-07-08T11:48:47;13.65;;;7.63;;
79702;SDS011;69172;52.352;5.006;2023-07-08T11:51:24;14.15;;;9.02;;
79702;SDS011;69172;52.352;5.006;2023-07-08T11:56:57;11.77;;;6.07;;
79702;SDS011;69172;52.352;5.006;2023-07-08T11:59:33;10.32;;;5.70;;
79702;SDS011;69172;52.352;5.006;2023-07-08T12:02:03;11.90;;;5.45;;
79702;SDS011;69172;52.352;5.006;2023-07-08T12:04:59;14.73;;;6.97;;
79702;SDS011;69172;52.352;5.006;2023-07-08T12:07:32;13.85;;;7.97;;
79702;SDS011;69172;52.352;5.006;2023-07-08T12:10:16;14.05;;;7.72;;
79702;SDS011;69172;52.352;5.006;2023-07-08T12:12:44;19.88;;;9.13;;
79702;SDS011;69172;52.352;5.006;2023-07-08T12:17:39;14.45;;;7.50;;
79702;SDS011;69172;52.352;5.006;2023-07-08T12:20:13;12.32;;;5.97;;
79702;SDS011;69172;52.352;5.006;2023-07-08T12:22:43;10.85;;;5.55;;
79702;SDS011;69172;52.352;5.006;2023-07-08T12:25:12;10.85;;;5.82;;
79702;SDS011;69172;52.352;5.006;2023-07-08T12:27:39;11.65;;;5.75;;
79702;SDS011;69172;52.352;5.006;2023-07-08T12:30:04;19.15;;;12.45;;
79702;SDS011;69172;52.352;5.006;2023-07-08T12:32:30;15.23;;;9.77;;
79702;SDS011;69172;52.352;5.006;2023-07-08T12:34:57;16.60;;;8.38;;
79702;SDS011;69172;52.352;5.006;2023-07-08T12:37:22;13.50;;;7.65;;
79702;SDS011;69172;52.352;5.006;2023-07-08T12:39:55;14.95;;;8.52;;
79702;SDS011;69172;52.352;5.006;2023-07-08T12:42:24;9.98;;;5.35;;
79702;SDS011;69172;52.352;5.006;2023-07-08T12:44:50;9.70;;;4.97;;
79702;SDS011;69172;52.352;5.006;2023-07-08T12:47:16;12.13;;;5.25;;
79702;SDS011;69172;52.352;5.006;2023-07-08T12:49:45;9.82;;;5.45;;
79702;SDS011;69172;52.352;5.006;2023-07-08T12:52:23;11.40;;;6.05;;
79702;SDS011;69172;52.352;5.006;2023-07-08T12:54:49;11.20;;;5.95;;
79702;SDS011;69172;52.352;5.006;2023-07-08T12:57:15;11.10;;;5.78;;
79702;SDS011;69172;52.352;5.006;2023-07-08T12:59:43;9.50;;;5.30;;
79702;SDS011;69172;52.352;5.006;2023-07-08T13:02:19;11.55;;;5.40;;
79702;SDS011;69172;52.352;5.006;2023-07-08T13:04:50;11.52;;;5.13;;
79702;SDS011;69172;52.352;5.006;2023-07-08T13:07:33;9.63;;;5.65;;
79702;SDS011;69172;52.352;5.006;2023-07-08T13:10:02;20.58;;;12.80;;
79702;SDS011;69172;52.352;5.006;2023-07-08T13:12:34;13.18;;;5.60;;
79702;SDS011;69172;52.352;5.006;2023-07-08T13:15:03;9.38;;;5.30;;
79702;SDS011;69172;52.352;5.006;2023-07-08T13:17:30;11.98;;;6.68;;
79702;SDS011;69172;52.352;5.006;2023-07-08T13:19:56;11.38;;;5.22;;
79702;SDS011;69172;52.352;5.006;2023-07-08T13:22:22;12.45;;;4.78;;
79702;SDS011;69172;52.352;5.006;2023-07-08T13:24:49;9.63;;;5.38;;
79702;SDS011;69172;52.352;5.006;2023-07-08T13:27:25;13.20;;;7.60;;
79702;SDS011;69172;52.352;5.006;2023-07-08T13:29:51;12.32;;;6.05;;
79702;SDS011;69172;52.352;5.006;2023-07-08T13:32:18;14.90;;;7.30;;
79702;SDS011;69172;52.352;5.006;2023-07-08T13:34:43;11.60;;;5.20;;
79702;SDS011;69172;52.352;5.006;2023-07-08T13:37:12;11.57;;;6.82;;
79702;SDS011;69172;52.352;5.006;2023-07-08T13:39:38;22.58;;;16.63;;
79702;SDS011;69172;52.352;5.006;2023-07-08T13:42:08;12.05;;;6.13;;
79702;SDS011;69172;52.352;5.006;2023-07-08T13:44:34;10.45;;;6.30;;
79702;SDS011;69172;52.352;5.006;2023-07-08T13:47:00;11.90;;;6.00;;
79702;SDS011;69172;52.352;5.006;2023-07-08T13:49:31;11.20;;;5.70;;
79702;SDS011;69172;52.352;5.006;2023-07-08T13:52:24;10.90;;;5.18;;
79702;SDS011;69172;52.352;5.006;2023-07-08T13:54:52;20.13;;;14.98;;
79702;SDS011;69172;52.352;5.006;2023-07-08T13:57:22;25.50;;;20.70;;
79702;SDS011;69172;52.352;5.006;2023-07-08T13:59:49;10.50;;;5.00;;
79702;SDS011;69172;52.352;5.006;2023-07-08T14:02:22;10.35;;;5.10;;
79702;SDS011;69172;52.352;5.006;2023-07-08T14:04:50;13.07;;;5.60;;
79702;SDS011;69172;52.352;5.006;2023-07-08T14:07:27;9.77;;;4.72;;
79702;SDS011;69172;52.352;5.006;2023-07-08T14:09:57;11.18;;;6.40;;
79702;SDS011;69172;52.352;5.006;2023-07-08T14:12:23;9.65;;;5.45;;
79702;SDS011;69172;52.352;5.006;2023-07-08T14:14:49;12.55;;;5.13;;
79702;SDS011;69172;52.352;5.006;2023-07-08T14:17:32;10.57;;;4.85;;
79702;SDS011;69172;52.352;5.006;2023-07-08T14:19:58;9.98;;;4.53;;
79702;SDS011;69172;52.352;5.006;2023-07-08T14:24:50;9.27;;;4.60;;
79702;SDS011;69172;52.352;5.006;2023-07-08T14:27:16;10.88;;;5.28;;
79702;SDS011;69172;52.352;5.006;2023-07-08T14:29:43;9.32;;;4.90;;
79702;SDS011;69172;52.352;5.006;2023-07-08T14:32:12;9.52;;;4.82;;
79702;SDS011;69172;52.352;5.006;2023-07-08T14:34:48;10.10;;;5.10;;
79702;SDS011;69172;52.352;5.006;2023-07-08T14:37:18;11.40;;;5.38;;
79702;SDS011;69172;52.352;5.006;2023-07-08T14:39:44;10.43;;;5.13;;
79702;SDS011;69172;52.352;5.006;2023-07-08T14:42:12;10.77;;;4.93;;
79702;SDS011;69172;52.352;5.006;2023-07-08T14:44:39;10.70;;;6.50;;
79702;SDS011;69172;52.352;5.006;2023-07-08T14:47:09;10.98;;;6.38;;
79702;SDS011;69172;52.352;5.006;2023-07-08T14:49:36;17.55;;;14.10;;
79702;SDS011;69172;52.352;5.006;2023-07-08T14:52:03;9.93;;;6.50;;
79702;SDS011;69172;52.352;5.006;2023-07-08T14:54:29;10.00;;;5.53;;
79702;SDS011;69172;52.352;5.006;2023-07-08T14:56:55;10.73;;;5.47;;
79702;SDS011;69172;52.352;5.006;2023-07-08T14:59:22;10.00;;;5.22;;
79702;SDS011;69172;52.352;5.006;2023-07-08T15:01:50;9.15;;;5.15;;
79702;SDS011;69172;52.352;5.006;2023-07-08T15:04:17;10.48;;;5.35;;
79702;SDS011;69172;52.352;5.006;2023-07-08T15:06:44;9.27;;;4.78;;
79702;SDS011;69172;52.352;5.006;2023-07-08T15:09:11;10.75;;;4.90;;
79702;SDS011;69172;52.352;5.006;2023-07-08T15:11:39;11.10;;;5.63;;
79702;SDS011;69172;52.352;5.006;2023-07-08T15:14:09;9.80;;;5.40;;
79702;SDS011;69172;52.352;5.006;2023-07-08T15:16:39;9.57;;;5.30;;
79702;SDS011;69172;52.352;5.006;2023-07-08T15:19:09;8.15;;;5.00;;
79702;SDS011;69172;52.352;5.006;2023-07-08T15:21:36;10.88;;;5.80;;
79702;SDS011;69172;52.352;5.006;2023-07-08T15:24:02;10.43;;;6.68;;
79702;SDS011;69172;52.352;5.006;2023-07-08T15:26:27;10.63;;;6.60;;
79702;SDS011;69172;52.352;5.006;2023-07-08T15:28:53;10.38;;;5.50;;
79702;SDS011;69172;52.352;5.006;2023-07-08T15:31:20;11.68;;;6.30;;
79702;SDS011;69172;52.352;5.006;2023-07-08T15:33:50;12.50;;;5.22;;
79702;SDS011;69172;52.352;5.006;2023-07-08T15:36:16;9.57;;;5.18;;
79702;SDS011;69172;52.352;5.006;2023-07-08T15:38:42;12.02;;;6.07;;
79702;SDS011;69172;52.352;5.006;2023-07-08T15:41:18;10.27;;;5.80;;
79702;SDS011;69172;52.352;5.006;2023-07-08T15:43:46;10.55;;;5.57;;
79702;SDS011;69172;52.352;5.006;2023-07-08T15:46:13;11.52;;;5.63;;
79702;SDS011;69172;52.352;5.006;2023-07-08T15:48:39;9.70;;;5.95;;
79702;SDS011;69172;52.352;5.006;2023-07-08T15:51:05;11.90;;;5.97;;
79702;SDS011;69172;52.352;5.006;2023-07-08T15:53:30;10.50;;;5.65;;
79702;SDS011;69172;52.352;5.006;2023-07-08T15:55:55;9.07;;;5.25;;
79702;SDS011;69172;52.352;5.006;2023-07-08T15:58:26;11.05;;;5.45;;
79702;SDS011;69172;52.352;5.006;2023-07-08T16:00:53;8.88;;;5.05;;